createdAt,value
2019-05-15T04:10:40.104Z,35.56
2019-05-15T04:31:51.920Z,35.56
2019-05-15T04:59:01.278Z,35.12
2019-05-15T05:32:34.273Z,34.87
2019-05-15T05:33:45.418Z,34.97
2019-05-15T05:34:45.536Z,35.27
2019-05-15T05:36:45.364Z,35.46
2019-05-15T05:37:45.358Z,34.86
2019-05-15T05:38:45.333Z,35.16
2019-05-15T05:39:45.316Z,35.55
2019-05-15T05:40:45.298Z,35.46
2019-05-15T05:41:45.305Z,34.75
2019-05-15T05:42:47.863Z,35.24
2019-05-15T05:43:45.304Z,35.04
2019-05-15T05:44:45.287Z,35.04
2019-05-15T05:46:45.237Z,35.14
2019-05-15T05:47:45.259Z,35.14
2019-05-15T05:48:45.227Z,34.74
2019-05-15T05:49:45.206Z,34.94
2019-05-15T05:50:45.205Z,35.04
2019-05-15T05:51:45.241Z,35.34
2019-05-15T05:52:45.175Z,35.54
2019-05-15T05:53:45.214Z,35.72
2019-05-15T05:54:45.166Z,35.14
2019-05-15T05:55:45.136Z,35.44
2019-05-15T05:56:45.137Z,35.72
2019-05-15T05:57:45.112Z,35.52
2019-05-15T05:58:45.125Z,35.62
2019-05-15T05:59:45.098Z,35.52
2019-05-15T06:00:45.089Z,35.62
2019-05-15T06:01:45.094Z,35.61
2019-05-15T06:02:48.847Z,35.62
2019-05-15T06:04:07.884Z,35.52
2019-05-15T06:05:07.957Z,35.51
2019-05-15T06:06:09.445Z,35.41
2019-05-15T06:07:13.869Z,35.51
2019-05-15T06:08:28.545Z,36.21
2019-05-15T06:09:28.534Z,35.61
2019-05-15T06:10:29.358Z,36.30
2019-05-15T06:11:28.530Z,36.21
2019-05-15T06:12:28.511Z,36.21
2019-05-15T06:13:29.085Z,36.01
2019-05-15T06:14:28.865Z,35.99
2019-05-15T06:15:28.619Z,35.79
2019-05-15T06:16:28.528Z,35.29
2019-05-15T06:17:28.471Z,36.29
2019-05-15T06:18:28.513Z,36.09
2019-05-15T06:19:31.015Z,35.59
2019-05-15T06:20:28.445Z,35.49
2019-05-15T06:21:28.675Z,35.69
2019-05-15T06:22:28.729Z,35.49
2019-05-15T06:23:34.588Z,35.39
2019-05-15T06:24:52.516Z,35.69
2019-05-15T06:25:52.488Z,35.27
2019-05-15T06:26:52.551Z,35.57
2019-05-15T06:27:52.554Z,35.49
2019-05-15T06:28:52.455Z,35.57
2019-05-15T06:29:52.450Z,35.27
2019-05-15T06:30:52.430Z,34.97
2019-05-15T06:31:52.423Z,34.77
2019-05-15T06:33:04.389Z,35.47
2019-05-15T06:34:14.416Z,34.77
2019-05-15T06:35:14.351Z,35.37
2019-05-15T06:36:14.388Z,34.47
2019-05-15T06:37:14.352Z,34.38
2019-05-15T06:38:14.318Z,34.57
2019-05-15T06:39:14.311Z,34.57
2019-05-15T06:40:18.239Z,34.38
2019-05-15T06:41:14.321Z,34.38
2019-05-15T06:42:14.297Z,35.46
2019-05-15T06:43:14.282Z,35.26
2019-05-15T06:44:14.257Z,34.56
2019-05-15T06:45:14.270Z,35.46
2019-05-15T06:46:14.226Z,34.46
2019-05-15T06:47:14.228Z,35.46
2019-05-15T06:48:14.273Z,34.86
2019-05-15T06:49:14.199Z,35.05
2019-05-15T06:50:14.188Z,35.05
2019-05-15T06:51:14.172Z,35.05
2019-05-15T06:52:14.183Z,35.05
2019-05-15T06:53:14.273Z,35.05
2019-05-15T06:54:14.168Z,35.05
2019-05-15T06:55:14.175Z,34.46
2019-05-15T06:56:14.124Z,35.05
2019-05-15T06:57:14.111Z,34.75
2019-05-15T06:58:14.177Z,34.36
2019-05-15T06:59:14.099Z,34.94
2019-05-15T07:00:14.096Z,35.24
2019-05-15T07:01:14.089Z,35.04
2019-05-15T07:02:14.058Z,35.24
2019-05-15T07:03:21.564Z,35.54
2019-05-15T07:04:38.411Z,35.44
2019-05-15T07:05:38.598Z,34.44
2019-05-15T07:06:38.083Z,34.74
2019-05-15T07:07:38.549Z,34.74
2019-05-15T07:08:38.359Z,34.74
2019-05-15T07:09:38.030Z,35.04
2019-05-15T07:10:37.751Z,35.24
2019-05-15T07:11:38.763Z,35.44
2019-05-15T07:12:38.785Z,34.44
2019-05-15T07:13:38.234Z,35.04
2019-05-15T07:14:38.009Z,35.34
2019-05-15T07:15:38.311Z,34.44
2019-05-15T07:16:38.749Z,35.04
2019-05-15T07:17:36.218Z,34.52
2019-05-15T07:18:38.780Z,35.14
2019-05-15T07:19:38.942Z,35.44
2019-05-15T07:20:38.862Z,34.54
2019-05-15T07:21:38.901Z,35.44
2019-05-15T07:22:38.830Z,35.32
2019-05-15T07:23:40.198Z,34.62
2019-05-15T07:24:38.232Z,34.42
2019-05-15T07:25:38.820Z,35.22
2019-05-15T07:26:38.947Z,34.62
2019-05-15T07:27:38.712Z,35.22
2019-05-15T07:28:38.000Z,35.12
2019-05-15T07:29:38.404Z,34.93
2019-05-15T07:30:40.854Z,35.12
2019-05-15T07:31:38.207Z,35.22
2019-05-15T07:32:36.065Z,35.22
2019-05-15T07:33:42.564Z,35.32
2019-05-15T07:34:57.928Z,34.93
2019-05-15T07:35:59.036Z,34.93
2019-05-15T07:36:59.227Z,34.93
2019-05-15T07:37:58.672Z,34.93
2019-05-15T07:38:58.105Z,35.12
2019-05-15T07:39:59.115Z,34.93
2019-05-15T07:41:04.267Z,34.82
2019-05-15T07:42:19.889Z,34.93
2019-05-15T07:43:19.888Z,34.72
2019-05-15T07:44:19.866Z,34.93
2019-05-15T07:45:19.961Z,34.93
2019-05-15T07:46:19.940Z,34.72
2019-05-15T07:47:19.916Z,34.72
2019-05-15T07:48:19.816Z,34.94
2019-05-15T07:49:19.800Z,34.82
2019-05-15T07:50:19.860Z,34.94
2019-05-15T07:51:19.986Z,34.72
2019-05-15T07:52:19.771Z,34.72
2019-05-15T07:53:20.330Z,34.94
2019-05-15T07:54:19.748Z,34.93
2019-05-15T07:55:19.780Z,34.72
2019-05-15T07:56:19.757Z,34.93
2019-05-15T07:57:19.734Z,34.93
2019-05-15T07:58:21.760Z,35.12
2019-05-15T07:59:19.690Z,35.14
2019-05-15T08:00:19.700Z,35.04
2019-05-15T08:01:19.752Z,35.12
2019-05-15T08:02:19.694Z,35.12
2019-05-15T08:03:19.645Z,35.14
2019-05-15T08:04:29.141Z,35.32
2019-05-15T08:05:55.031Z,35.32
2019-05-15T08:07:03.320Z,35.32
2019-05-15T08:08:03.344Z,35.24
2019-05-15T08:09:03.311Z,35.34
2019-05-15T08:10:03.289Z,35.32
2019-05-15T08:11:16.259Z,35.24
2019-05-15T08:12:28.196Z,35.12
2019-05-15T08:13:25.472Z,34.84
2019-05-15T08:14:25.469Z,34.93
2019-05-15T08:15:25.450Z,34.93
2019-05-15T08:16:25.485Z,35.14
2019-05-15T08:17:28.744Z,34.72
2019-05-15T08:18:25.435Z,35.14
2019-05-15T08:19:25.499Z,35.32
2019-05-15T08:20:25.407Z,34.82
2019-05-15T08:21:29.054Z,34.93
2019-05-15T08:22:25.395Z,34.84
2019-05-15T08:23:25.493Z,34.82
2019-05-15T08:24:25.353Z,34.94
2019-05-15T08:25:32.252Z,34.72
2019-05-15T08:26:48.682Z,34.93
2019-05-15T08:27:48.491Z,34.72
2019-05-15T08:28:48.683Z,34.62
2019-05-15T08:29:48.712Z,34.93
2019-05-15T08:30:49.470Z,35.04
2019-05-15T08:31:48.223Z,35.02
2019-05-15T08:32:50.985Z,34.82
2019-05-15T08:33:48.181Z,34.62
2019-05-15T08:34:48.070Z,35.04
2019-05-15T08:35:51.164Z,34.94
2019-05-15T08:36:48.297Z,34.84
2019-05-15T08:37:49.049Z,34.94
2019-05-15T08:38:48.744Z,34.94
2019-05-15T08:39:48.798Z,34.94
2019-05-15T08:40:48.882Z,34.74
2019-05-15T08:41:48.483Z,34.94
2019-05-15T08:42:56.396Z,34.74
2019-05-15T08:44:08.906Z,35.04
2019-05-15T08:45:09.342Z,35.04
2019-05-15T08:46:08.677Z,34.74
2019-05-15T08:47:08.642Z,35.04
2019-05-15T08:48:09.350Z,34.74
2019-05-15T08:49:09.132Z,34.94
2019-05-15T08:50:10.217Z,35.04
2019-05-15T08:51:08.955Z,35.04
2019-05-15T08:52:10.176Z,34.84
2019-05-15T08:53:08.949Z,34.84
2019-05-15T08:54:08.733Z,35.14
2019-05-15T08:55:08.874Z,35.04
2019-05-15T08:56:08.967Z,35.04
2019-05-15T08:57:08.654Z,35.04
2019-05-15T08:58:13.698Z,34.74
2019-05-15T08:59:08.903Z,34.86
2019-05-15T09:00:09.741Z,34.94
2019-05-15T09:01:09.715Z,34.75
2019-05-15T09:02:08.478Z,34.96
2019-05-15T09:03:08.763Z,34.66
2019-05-15T09:04:09.048Z,35.16
2019-05-15T09:05:08.861Z,34.75
2019-05-15T09:06:09.164Z,35.16
2019-05-15T09:07:09.471Z,34.96
2019-05-15T09:08:09.262Z,34.75
2019-05-15T09:09:09.612Z,34.75
2019-05-15T09:10:09.051Z,35.05
2019-05-15T09:11:09.772Z,35.35
2019-05-15T09:12:08.475Z,35.05
2019-05-15T09:13:09.575Z,35.16
2019-05-15T09:14:08.377Z,34.96
2019-05-15T09:31:19.322Z,34.87
2019-05-15T09:32:19.172Z,34.87
2019-05-15T09:33:19.914Z,35.07
2019-05-15T09:34:18.514Z,35.18
2019-05-15T09:35:18.672Z,34.77
2019-05-15T09:36:20.223Z,35.09
2019-05-15T09:37:18.092Z,35.47
2019-05-15T09:38:18.460Z,34.97
2019-05-15T09:39:18.253Z,35.49
2019-05-15T09:40:18.645Z,34.59
2019-05-15T09:41:17.900Z,35.09
2019-05-15T09:42:17.952Z,34.77
2019-05-15T09:43:18.166Z,34.99
2019-05-15T09:44:21.649Z,35.07
2019-05-15T09:45:17.965Z,33.79
2019-05-15T09:46:18.496Z,34.19
2019-05-15T09:47:18.859Z,34.09
2019-05-15T09:48:19.846Z,34.09
2019-05-15T09:49:18.193Z,34.19
2019-05-15T09:50:19.393Z,33.99
2019-05-15T09:51:18.339Z,33.59
2019-05-15T09:52:22.467Z,33.59
2019-05-15T09:53:18.805Z,33.79
2019-05-15T09:54:19.272Z,33.77
2019-05-15T09:55:18.087Z,33.58
2019-05-15T09:56:18.703Z,33.59
2019-05-15T09:57:18.766Z,33.29
2019-05-15T09:58:20.284Z,33.59
2019-05-15T09:59:18.658Z,33.88
2019-05-15T10:00:18.951Z,33.99
2019-05-15T10:01:19.680Z,33.58
2019-05-15T10:02:18.971Z,33.59
2019-05-15T10:03:18.941Z,33.59
2019-05-15T10:04:19.067Z,33.67
2019-05-15T10:05:18.694Z,34.09
2019-05-15T10:06:20.099Z,34.27
2019-05-15T10:07:19.256Z,34.09
2019-05-15T10:08:17.190Z,34.17
2019-05-15T10:09:18.871Z,34.27
2019-05-15T10:10:19.243Z,34.07
2019-05-15T10:11:19.568Z,34.38
2019-05-15T10:12:18.339Z,34.38
2019-05-15T10:13:18.421Z,34.27
2019-05-15T10:14:19.286Z,33.97
2019-05-15T10:15:18.651Z,33.67
2019-05-15T10:16:19.537Z,33.77
2019-05-15T10:17:18.412Z,33.58
2019-05-15T10:18:19.129Z,33.97
2019-05-15T10:19:18.513Z,33.17
2019-05-15T10:20:18.493Z,33.58
2019-05-15T10:21:18.769Z,33.97
2019-05-15T10:22:18.713Z,33.97
2019-05-15T10:23:19.680Z,33.58
2019-05-15T10:24:18.201Z,33.97
2019-05-15T10:25:18.975Z,33.58
2019-05-15T10:26:19.193Z,33.58
2019-05-15T10:27:18.007Z,33.97
2019-05-15T10:28:18.745Z,33.58
2019-05-15T10:29:16.895Z,33.58
2019-05-15T10:30:18.966Z,33.77
2019-05-15T10:31:19.264Z,33.59
2019-05-15T10:32:19.494Z,33.77
2019-05-15T10:33:19.594Z,33.58
2019-05-15T10:34:18.435Z,33.67
2019-05-15T10:35:25.696Z,33.58
2019-05-15T10:36:41.386Z,33.58
2019-05-15T10:37:39.003Z,33.58
2019-05-15T10:38:39.177Z,33.38
2019-05-15T10:39:38.564Z,33.27
2019-05-15T10:40:41.067Z,33.77
2019-05-15T10:42:00.343Z,33.77
2019-05-15T10:43:00.341Z,33.59
2019-05-15T10:44:00.648Z,33.79
2019-05-15T10:45:00.312Z,33.59
2019-05-15T10:46:00.310Z,33.47
2019-05-15T10:47:00.286Z,33.47
2019-05-15T10:48:00.263Z,33.47
2019-05-15T10:49:00.282Z,33.58
2019-05-15T10:50:00.350Z,33.79
2019-05-15T10:51:06.159Z,33.58
2019-05-15T10:52:22.397Z,33.77
2019-05-15T10:53:22.388Z,33.88
2019-05-15T10:54:22.375Z,33.67
2019-05-15T10:55:22.855Z,33.77
2019-05-15T10:56:22.368Z,33.58
2019-05-15T10:57:22.350Z,33.59
2019-05-15T10:58:22.479Z,33.58
2019-05-15T10:59:22.310Z,33.67
2019-05-15T11:00:22.335Z,33.79
2019-05-15T11:01:22.289Z,33.59
2019-05-15T11:02:22.283Z,33.67
2019-05-15T11:03:22.264Z,33.67
2019-05-15T11:04:22.249Z,33.67
2019-05-15T11:05:37.392Z,33.59
2019-05-15T11:06:44.845Z,33.58
2019-05-15T11:07:44.567Z,33.27
2019-05-15T11:08:44.544Z,33.17
2019-05-15T11:09:44.545Z,33.17
2019-05-15T11:10:45.114Z,33.58
2019-05-15T11:11:44.498Z,33.59
2019-05-15T11:12:44.507Z,33.69
2019-05-15T11:13:44.485Z,33.59
2019-05-15T11:14:44.477Z,33.58
2019-05-15T11:15:45.856Z,33.58
2019-05-15T11:16:44.441Z,33.27
2019-05-15T11:17:44.453Z,33.58
2019-05-15T11:18:44.436Z,33.08
2019-05-15T11:19:44.419Z,33.59
2019-05-15T11:20:44.426Z,32.99
2019-05-15T11:21:44.397Z,33.47
2019-05-15T11:22:44.509Z,33.59
2019-05-15T11:23:44.364Z,33.27
2019-05-15T11:24:44.358Z,33.58
2019-05-15T11:25:44.338Z,33.77
2019-05-15T11:26:44.360Z,33.27
2019-05-15T11:27:44.335Z,33.47
2019-05-15T11:28:44.312Z,33.39
2019-05-15T11:29:44.335Z,33.49
2019-05-15T11:30:44.302Z,33.39
2019-05-15T11:31:48.788Z,33.27
2019-05-15T11:32:44.270Z,33.09
2019-05-15T11:33:44.265Z,33.47
2019-05-15T11:34:44.266Z,33.69
2019-05-15T11:35:58.096Z,33.97
2019-05-15T11:37:06.457Z,34.07
2019-05-15T11:38:09.660Z,33.97
2019-05-15T11:39:08.368Z,34.07
2019-05-15T11:40:09.721Z,33.88
2019-05-15T11:41:08.453Z,33.58
2019-05-15T11:42:08.902Z,33.58
2019-05-15T11:43:08.526Z,33.67
2019-05-15T11:44:06.363Z,33.47
2019-05-15T11:45:06.363Z,33.38
2019-05-15T11:46:06.356Z,33.27
2019-05-15T11:47:06.334Z,33.58
2019-05-15T11:48:06.323Z,33.67
2019-05-15T11:49:09.394Z,33.67
2019-05-15T11:50:08.367Z,33.77
2019-05-15T11:51:09.215Z,33.67
2019-05-15T11:52:08.601Z,33.58
2019-05-15T11:53:08.788Z,33.08
2019-05-15T11:54:08.250Z,33.27
2019-05-15T11:55:08.426Z,33.47
2019-05-15T11:56:09.489Z,32.97
2019-05-15T11:57:08.624Z,33.17
2019-05-15T11:58:06.232Z,33.08
2019-05-15T11:59:08.392Z,33.17
2019-05-15T12:00:14.910Z,33.38
2019-05-15T12:01:35.357Z,32.87
2019-05-15T12:02:35.362Z,33.17
2019-05-15T12:03:35.331Z,32.97
2019-05-15T12:04:35.344Z,32.97
2019-05-15T12:05:35.465Z,33.38
2019-05-15T12:06:35.312Z,33.17
2019-05-15T12:07:35.305Z,33.17
2019-05-15T12:08:35.285Z,33.08
2019-05-15T12:09:35.258Z,32.97
2019-05-15T12:10:35.242Z,33.27
2019-05-15T12:11:37.287Z,33.17
2019-05-15T12:12:35.241Z,33.17
2019-05-15T12:13:35.221Z,32.97
2019-05-15T12:14:35.223Z,33.38
2019-05-15T12:17:06.852Z,33.17
2019-05-15T12:18:31.114Z,33.08
2019-05-15T12:19:31.087Z,32.99
2019-05-15T12:20:31.090Z,32.87
2019-05-15T12:21:31.101Z,33.17
2019-05-15T12:22:31.058Z,33.09
2019-05-15T12:23:31.038Z,32.17
2019-05-15T12:25:33.025Z,32.28
2019-05-15T12:26:31.038Z,32.28
2019-05-15T12:27:31.000Z,32.28
2019-05-15T12:28:31.083Z,32.37
2019-05-15T12:29:30.971Z,32.78
2019-05-15T12:30:31.025Z,32.47
2019-05-15T12:31:30.959Z,32.47
2019-05-15T12:32:36.034Z,32.47
2019-05-15T12:33:53.925Z,32.58
2019-05-15T12:34:53.888Z,32.37
2019-05-15T12:35:53.905Z,32.39
2019-05-15T12:37:55.856Z,32.47
2019-05-15T12:37:59.287Z,32.59
2019-05-15T12:38:53.884Z,32.08
2019-05-15T13:00:19.232Z,31.69
2019-05-15T13:01:21.881Z,31.89
2019-05-15T13:02:19.218Z,31.89
2019-05-15T13:03:20.208Z,31.59
2019-05-15T13:04:19.987Z,31.79
2019-05-15T13:05:19.333Z,32.08
2019-05-15T13:06:19.402Z,31.87
2019-05-15T13:07:19.996Z,32.08
2019-05-15T13:08:19.544Z,32.09
2019-05-15T13:09:19.395Z,31.79
2019-05-15T13:10:19.127Z,31.87
2019-05-15T13:11:19.091Z,32.19
2019-05-15T13:12:19.076Z,32.09
2019-05-15T13:13:19.070Z,32.09
2019-05-15T13:14:19.074Z,31.89
2019-05-15T13:15:19.145Z,31.69
2019-05-15T13:16:19.043Z,32.09
2019-05-15T13:17:22.038Z,31.98
2019-05-15T13:18:19.056Z,32.17
2019-05-15T13:19:19.144Z,32.19
2019-05-15T13:20:19.001Z,31.79
2019-05-15T13:21:20.900Z,32.09
2019-05-15T13:22:24.384Z,31.09
2019-05-15T13:23:18.955Z,31.39
2019-05-15T13:24:19.527Z,31.37
2019-05-15T13:25:19.007Z,31.19
2019-05-15T13:26:23.853Z,30.98
2019-05-15T13:27:41.244Z,31.09
2019-05-15T13:28:41.236Z,31.29
2019-05-15T13:29:41.212Z,31.19
2019-05-15T13:30:41.786Z,31.28
2019-05-15T13:31:41.226Z,31.39
2019-05-15T13:32:41.476Z,31.87
2019-05-15T13:33:41.687Z,31.18
2019-05-15T13:34:42.570Z,31.48
2019-05-15T13:35:41.192Z,31.79
2019-05-15T13:36:41.185Z,31.57
2019-05-15T13:37:41.199Z,31.49
2019-05-15T13:38:41.138Z,31.48
2019-05-15T13:39:41.137Z,31.37
2019-05-15T13:40:42.286Z,31.48
2019-05-15T13:41:41.348Z,31.37
2019-05-15T13:42:41.077Z,31.57
2019-05-15T13:43:41.078Z,31.39
2019-05-15T13:44:41.052Z,31.37
2019-05-15T13:45:41.030Z,31.37
2019-05-15T13:46:41.030Z,31.19
2019-05-15T13:47:41.048Z,31.19
2019-05-15T13:48:41.037Z,30.57
2019-05-15T13:49:40.990Z,30.78
2019-05-15T13:50:40.981Z,30.57
2019-05-15T13:51:40.968Z,30.68
2019-05-15T13:52:43.958Z,30.98
2019-05-15T13:53:41.005Z,30.68
2019-05-15T13:54:44.300Z,30.78
2019-05-15T13:55:42.705Z,31.18
2019-05-15T13:56:40.924Z,30.98
2019-05-15T13:57:40.894Z,31.28
2019-05-15T13:58:40.890Z,31.37
2019-05-15T13:59:40.888Z,31.28
2019-05-15T14:00:40.864Z,31.18
2019-05-15T14:02:40.933Z,31.07
2019-05-15T14:03:40.844Z,31.28
2019-05-15T14:04:40.817Z,31.18
2019-05-15T14:05:40.816Z,31.19
2019-05-15T14:06:40.796Z,31.09
2019-05-15T14:07:49.465Z,31.07
2019-05-15T14:09:02.549Z,31.28
2019-05-15T14:10:02.536Z,31.18
2019-05-15T14:11:02.524Z,31.28
2019-05-15T14:12:02.518Z,31.09
2019-05-15T14:13:02.503Z,30.57
2019-05-15T14:14:02.599Z,30.68
2019-05-15T14:15:02.694Z,30.78
2019-05-15T14:16:02.490Z,30.57
2019-05-15T14:17:02.510Z,30.78
2019-05-15T14:18:02.451Z,31.37
2019-05-15T14:19:02.494Z,30.78
2019-05-15T14:20:03.210Z,30.78
2019-05-15T14:21:02.418Z,30.78
2019-05-15T14:22:02.403Z,30.78
2019-05-15T14:23:02.457Z,31.07
2019-05-15T14:24:02.382Z,31.18
2019-05-15T14:25:02.381Z,31.28
2019-05-15T14:26:15.083Z,31.18
2019-05-15T14:27:24.425Z,31.18
2019-05-15T14:28:24.506Z,31.28
2019-05-15T14:29:24.398Z,31.07
2019-05-15T14:30:24.390Z,31.28
2019-05-15T14:31:24.376Z,30.87
2019-05-15T14:32:35.449Z,30.87
2019-05-15T14:33:48.605Z,30.98
2019-05-15T14:34:48.434Z,31.07
2019-05-15T14:35:48.288Z,30.87
2019-05-15T14:36:48.360Z,30.98
2019-05-15T14:38:02.264Z,31.37
2019-05-15T14:39:08.348Z,31.18
2019-05-15T14:40:09.049Z,30.87
2019-05-15T14:41:08.883Z,31.48
2019-05-15T14:42:09.037Z,31.28
2019-05-15T14:43:09.078Z,31.48
2019-05-15T14:44:16.772Z,31.37
2019-05-15T14:45:30.358Z,31.28
2019-05-15T14:46:30.354Z,31.18
2019-05-15T14:47:30.324Z,31.28
2019-05-15T14:48:30.316Z,30.98
2019-05-15T14:49:34.489Z,31.37
2019-05-15T14:50:30.298Z,31.48
2019-05-15T14:51:30.282Z,31.07
2019-05-15T14:53:30.263Z,31.18
2019-05-15T14:54:30.254Z,30.98
2019-05-15T14:55:33.665Z,31.48
2019-05-15T14:56:30.245Z,31.18
2019-05-15T14:57:30.216Z,30.98
2019-05-15T14:58:30.205Z,31.48
2019-05-15T15:14:42.714Z,31.48
2019-05-15T15:15:42.599Z,31.09
2019-05-15T15:16:42.603Z,31.09
2019-05-15T15:17:42.607Z,30.87
2019-05-15T15:18:42.575Z,31.48
2019-05-15T15:19:42.618Z,30.98
2019-05-15T15:20:42.548Z,31.07
2019-05-15T15:21:42.551Z,31.28
2019-05-15T15:22:42.707Z,31.18
2019-05-15T15:23:42.511Z,31.29
2019-05-15T15:24:42.495Z,30.68
2019-05-15T15:25:42.496Z,30.99
2019-05-15T15:26:42.476Z,30.79
2019-05-15T15:27:42.464Z,31.39
2019-05-15T15:28:42.452Z,30.57
2019-05-15T15:29:42.444Z,30.89
2019-05-15T15:30:42.460Z,30.78
2019-05-15T15:31:42.418Z,30.68
2019-05-15T15:32:42.486Z,30.78
2019-05-15T15:33:42.407Z,30.57
2019-05-15T15:34:42.391Z,30.69
2019-05-15T15:35:42.397Z,30.89
2019-05-15T15:37:42.367Z,31.29
2019-05-15T15:38:44.094Z,31.29
2019-05-15T15:39:42.336Z,31.29
2019-05-15T15:41:42.323Z,31.39
2019-05-15T15:42:42.293Z,31.28
2019-05-15T15:43:42.334Z,31.39
2019-05-15T15:44:42.278Z,31.48
2019-05-15T15:45:42.296Z,31.39
2019-05-15T15:46:42.267Z,31.59
2019-05-15T15:47:42.248Z,31.39
2019-05-15T15:48:42.247Z,31.39
2019-05-15T15:49:42.221Z,31.59
2019-05-15T15:50:42.208Z,31.39
2019-05-15T15:51:42.238Z,31.59
2019-05-15T15:52:42.182Z,31.57
2019-05-15T15:53:42.173Z,31.79
2019-05-15T15:54:42.165Z,31.78
2019-05-15T15:55:42.178Z,31.67
2019-05-15T15:56:42.148Z,31.19
2019-05-15T15:57:42.138Z,31.49
2019-05-15T15:58:42.115Z,31.09
2019-05-15T15:59:42.110Z,31.29
2019-05-15T16:00:42.098Z,31.29
2019-05-15T16:01:42.085Z,31.18
2019-05-15T16:02:42.083Z,31.29
2019-05-15T16:03:42.106Z,31.28
2019-05-15T16:04:42.065Z,31.09
2019-05-15T16:05:42.040Z,31.29
2019-05-15T16:06:42.025Z,31.19
2019-05-15T16:07:43.528Z,31.09
2019-05-15T16:10:04.382Z,30.99
2019-05-15T16:11:04.353Z,31.29
2019-05-15T16:12:04.367Z,31.28
2019-05-15T16:13:04.338Z,31.39
2019-05-15T16:14:04.323Z,31.39
2019-05-15T16:15:04.309Z,31.37
2019-05-15T16:17:04.322Z,31.19
2019-05-15T16:18:04.299Z,31.79
2019-05-15T16:19:04.275Z,31.79
2019-05-15T16:20:04.259Z,32.09
2019-05-15T16:21:04.267Z,31.89
2019-05-15T16:22:04.248Z,31.89
2019-05-15T16:23:04.216Z,31.79
2019-05-15T16:24:17.046Z,31.79
2019-05-15T16:25:28.712Z,31.59
2019-05-15T16:26:28.887Z,31.79
2019-05-15T16:27:28.602Z,31.89
2019-05-15T16:28:28.802Z,32.19
2019-05-15T16:29:28.229Z,32.09
2019-05-15T16:30:28.175Z,31.59
2019-05-15T16:31:27.912Z,31.99
2019-05-15T16:32:28.800Z,32.09
2019-05-15T16:33:28.286Z,31.89
2019-05-15T16:34:28.406Z,31.79
2019-05-15T16:35:26.380Z,31.79
2019-05-15T16:36:26.360Z,31.79
2019-05-15T16:37:26.347Z,31.59
2019-05-15T16:38:28.371Z,31.59
2019-05-15T16:39:28.612Z,31.89
2019-05-15T16:41:28.829Z,31.99
2019-05-15T16:42:28.451Z,31.99
2019-05-15T16:43:28.346Z,31.59
2019-05-15T16:44:28.826Z,31.69
2019-05-15T16:45:28.680Z,31.89
2019-05-15T16:46:28.236Z,31.99
2019-05-15T16:47:27.969Z,31.59
2019-05-15T16:48:29.079Z,31.89
2019-05-15T16:49:28.308Z,31.89
2019-05-15T16:50:28.431Z,31.89
2019-05-15T16:52:26.180Z,31.99
2019-05-15T16:54:28.709Z,32.09
2019-05-15T16:56:28.319Z,32.19
2019-05-15T16:57:28.279Z,32.09
2019-05-15T16:58:26.102Z,32.19
2019-05-15T16:59:26.100Z,32.19
2019-05-15T17:00:26.097Z,32.29
2019-05-15T17:01:28.814Z,32.29
2019-05-15T17:02:28.186Z,32.19
2019-05-15T17:03:26.047Z,31.79
2019-05-15T17:04:28.625Z,31.89
2019-05-15T17:05:26.035Z,31.99
2019-05-15T17:06:28.088Z,31.89
2019-05-15T17:07:26.003Z,31.89
2019-05-15T17:08:28.392Z,32.09
2019-05-15T17:09:27.990Z,31.90
2019-05-15T17:10:28.023Z,31.89
2019-05-15T17:11:25.972Z,31.89
2019-05-15T17:12:27.829Z,31.79
2019-05-15T17:13:28.515Z,31.99
2019-05-15T17:14:28.571Z,32.01
2019-05-15T17:15:27.958Z,32.09
2019-05-15T17:16:25.916Z,31.79
2019-05-15T17:17:25.909Z,31.79
2019-05-15T17:18:25.886Z,32.01
2019-05-15T17:19:25.873Z,32.31
2019-05-15T17:20:28.260Z,32.31
2019-05-15T17:21:28.266Z,32.01
2019-05-15T17:22:25.841Z,32.29
2019-05-15T17:23:27.729Z,32.39
2019-05-15T17:24:25.811Z,32.50
2019-05-15T17:25:25.806Z,32.49
2019-05-15T17:26:28.547Z,32.91
2019-05-15T17:27:25.778Z,32.89
2019-05-15T17:28:25.770Z,32.81
2019-05-15T17:29:25.784Z,33.00
2019-05-15T17:30:25.744Z,32.50
2019-05-15T17:31:25.862Z,32.49
2019-05-15T17:32:25.733Z,32.50
2019-05-15T17:33:25.717Z,32.81
2019-05-15T17:34:25.700Z,32.49
2019-05-15T17:35:27.433Z,32.40
2019-05-15T17:36:27.504Z,32.39
2019-05-15T17:37:25.660Z,32.91
2019-05-15T17:38:25.655Z,32.40
2019-05-15T17:39:34.605Z,32.50
2019-05-15T17:40:48.968Z,32.40
2019-05-15T17:41:48.953Z,32.61
2019-05-15T17:43:48.919Z,32.40
2019-05-15T17:44:48.920Z,32.61
2019-05-15T17:45:48.900Z,32.81
2019-05-15T17:46:49.117Z,32.81
2019-05-15T17:50:10.639Z,32.31
2019-05-15T17:51:10.617Z,32.89
2019-05-15T17:52:10.611Z,32.20
2019-05-15T17:53:10.605Z,32.40
2019-05-15T17:55:10.601Z,32.50
2019-05-15T17:56:10.570Z,32.29
2019-05-15T17:57:10.572Z,32.31
2019-05-15T17:59:10.535Z,32.70
2019-05-15T18:00:12.825Z,32.59
2019-05-15T18:02:10.494Z,32.70
2019-05-15T18:03:10.491Z,32.81
2019-05-15T18:06:10.451Z,32.70
2019-05-15T18:07:10.451Z,32.49
2019-05-15T18:09:10.422Z,32.79
2019-05-15T18:10:10.418Z,32.29
2019-05-15T18:12:11.839Z,32.40
2019-05-15T18:13:10.372Z,32.49
2019-05-15T18:14:10.359Z,32.40
2019-05-15T18:15:10.350Z,32.50
2019-05-15T18:18:10.323Z,32.50
2019-05-15T18:19:10.354Z,32.50
2019-05-15T18:21:10.286Z,32.50
2019-05-15T18:23:10.273Z,32.40
2019-05-15T18:24:10.258Z,32.31
2019-05-15T18:26:10.233Z,32.50
2019-05-15T18:27:10.212Z,32.50
2019-05-15T18:28:10.201Z,32.50
2019-05-15T18:30:10.183Z,32.52
2019-05-15T18:34:10.166Z,32.50
2019-05-15T18:37:10.165Z,32.70
2019-05-15T18:38:10.098Z,32.52
2019-05-15T18:39:10.081Z,32.52
2019-05-15T18:40:10.410Z,32.62
2019-05-15T18:41:10.058Z,32.50
2019-05-15T18:42:10.064Z,32.72
2019-05-15T18:43:10.208Z,32.92
2019-05-15T18:45:10.027Z,32.42
2019-05-15T18:49:09.968Z,32.22
2019-05-15T18:50:13.298Z,32.22
2019-05-15T18:53:09.933Z,32.22
2019-05-15T18:55:09.903Z,32.32
2019-05-15T18:56:09.913Z,33.32
2019-05-15T18:58:09.869Z,33.22
